Time;durP1;ratioP1;P1;durP2;ratioP2;P2;SDS_P1;SDS_P2;PMS_P1;PMS_P2;Temp;Humidity;BMP_temperature;BMP_pressure;BME280_temperature;BME280_humidity;BME280_pressure;Samples;Min_cycle;Max_cycle;Signal;HPM_P1;HPM_P2
2022/08/02 00:02:18;;;;;;;14.70;4.90;;;13.30;99.90;;;;;;4915038;29;20063;-75
2022/08/02 00:05:05;;;;;;;21.08;5.75;;;13.30;99.90;;;;;;4914077;29;20052;-76
2022/08/02 00:07:51;;;;;;;14.25;4.07;;;13.30;99.90;;;;;;4899246;29;20141;-76
2022/08/02 00:10:38;;;;;;;9.93;3.90;;;13.30;99.90;;;;;;4913598;29;20048;-77
2022/08/02 00:13:24;;;;;;;9.60;3.28;;;13.30;99.90;;;;;;4899715;29;20064;-76
2022/08/02 00:16:10;;;;;;;12.82;3.95;;;13.30;99.90;;;;;;4913597;29;20059;-74
2022/08/02 00:18:57;;;;;;;9.98;3.53;;;13.20;99.90;;;;;;4919739;29;20041;-74
2022/08/02 00:21:43;;;;;;;8.10;3.65;;;13.20;99.90;;;;;;4900585;29;20058;-76
2022/08/02 00:24:29;;;;;;;9.23;3.60;;;13.20;99.90;;;;;;4914560;29;20126;-75
2022/08/02 00:27:15;;;;;;;9.60;3.35;;;13.20;99.90;;;;;;4898663;29;20110;-75
2022/08/02 00:30:01;;;;;;;15.65;4.28;;;13.10;99.90;;;;;;4913973;29;20066;-75
2022/08/02 00:32:47;;;;;;;7.80;3.47;;;13.10;99.90;;;;;;4898672;29;20108;-75
2022/08/02 00:35:34;;;;;;;10.13;2.92;;;13.10;99.90;;;;;;4914211;29;20811;-75
2022/08/02 00:38:20;;;;;;;16.65;4.35;;;13.10;99.90;;;;;;4914180;29;20048;-75
2022/08/02 00:41:12;;;;;;;8.35;3.28;;;13.10;99.90;;;;;;4898595;29;20078;-76
2022/08/02 00:43:59;;;;;;;12.10;4.00;;;13.10;99.90;;;;;;4898319;29;20102;-76
2022/08/02 00:46:46;;;;;;;12.73;4.85;;;13.00;99.90;;;;;;4897965;29;20091;-77
2022/08/02 00:49:32;;;;;;;12.02;4.00;;;13.00;99.90;;;;;;4914527;29;20059;-77
2022/08/02 00:52:18;;;;;;;11.43;3.83;;;13.00;99.90;;;;;;4897790;29;20162;-75
2022/08/02 00:55:05;;;;;;;13.60;4.03;;;13.00;99.90;;;;;;4914373;29;20056;-77
2022/08/02 00:57:52;;;;;;;10.23;4.47;;;13.00;99.90;;;;;;4897413;29;20143;-75
2022/08/02 01:00:38;;;;;;;13.55;4.30;;;12.90;99.90;;;;;;4914451;29;20416;-77
2022/08/02 01:03:24;;;;;;;10.05;4.78;;;12.90;99.90;;;;;;4912843;29;20060;-76
2022/08/02 01:06:13;;;;;;;10.05;4.90;;;12.90;99.90;;;;;;4898215;29;20060;-77
2022/08/02 01:09:00;;;;;;;14.10;4.80;;;12.90;99.90;;;;;;4916102;29;20416;-76
2022/08/02 01:11:46;;;;;;;11.30;5.10;;;12.80;99.90;;;;;;4887420;29;20492;-78
2022/08/02 01:14:33;;;;;;;10.40;4.25;;;12.80;99.90;;;;;;4914446;29;20187;-77
2022/08/02 01:17:22;;;;;;;10.02;4.10;;;12.80;99.90;;;;;;4914643;29;20071;-76
2022/08/02 01:20:24;;;;;;;11.70;3.92;;;12.80;99.90;;;;;;4914127;29;20052;-76
2022/08/02 01:23:32;;;;;;;12.43;4.28;;;12.80;99.90;;;;;;4915601;29;20048;-77
2022/08/02 01:26:53;;;;;;;9.65;3.90;;;12.80;99.90;;;;;;4898093;29;20167;-76
2022/08/02 01:29:44;;;;;;;12.65;3.97;;;12.80;99.90;;;;;;4913729;29;20111;-76
2022/08/02 01:32:40;;;;;;;10.20;4.20;;;12.70;99.90;;;;;;4912825;29;20048;-77
2022/08/02 01:35:36;;;;;;;9.32;3.85;;;12.80;99.90;;;;;;4897722;29;20434;-76
2022/08/02 01:38:32;;;;;;;17.75;4.25;;;12.80;99.90;;;;;;4919485;29;20232;-75
2022/08/02 01:41:22;;;;;;;10.50;3.70;;;12.70;99.90;;;;;;4917532;29;20523;-77
2022/08/02 01:44:10;;;;;;;11.43;3.95;;;12.80;99.90;;;;;;4902033;29;20119;-77
2022/08/02 01:47:01;;;;;;;13.25;4.57;;;12.70;99.90;;;;;;4917165;29;20044;-76
2022/08/02 01:49:51;;;;;;;12.25;3.80;;;12.70;99.90;;;;;;4900909;29;20424;-78
2022/08/02 01:52:48;;;;;;;15.70;4.97;;;12.70;99.90;;;;;;4888184;29;20074;-77
2022/08/02 01:55:45;;;;;;;13.48;4.38;;;12.80;99.90;;;;;;4900839;29;20056;-76
2022/08/02 01:58:35;;;;;;;12.23;4.30;;;12.80;99.90;;;;;;4916898;29;20060;-78
2022/08/02 02:01:22;;;;;;;15.25;5.00;;;12.70;99.90;;;;;;4917334;29;20131;-78
2022/08/02 02:04:09;;;;;;;20.88;4.45;;;12.70;99.90;;;;;;4905148;29;20096;-78
2022/08/02 02:06:57;;;;;;;10.38;4.15;;;12.70;99.90;;;;;;4920209;29;20056;-77
2022/08/02 02:09:45;;;;;;;10.27;4.53;;;12.70;99.90;;;;;;4901027;29;20122;-76
2022/08/02 02:12:33;;;;;;;15.52;4.70;;;12.70;99.90;;;;;;4918192;29;20055;-78
2022/08/02 02:15:21;;;;;;;9.52;3.70;;;12.80;99.90;;;;;;4918262;28;20057;-79
2022/08/02 02:18:11;;;;;;;16.13;4.90;;;12.70;99.90;;;;;;4917980;29;20058;-76
2022/08/02 02:20:57;;;;;;;15.18;3.95;;;12.70;99.90;;;;;;4916792;29;20063;-78
2022/08/02 02:23:43;;;;;;;13.23;4.35;;;12.70;99.90;;;;;;4916806;29;20056;-77
2022/08/02 02:26:32;;;;;;;10.50;3.90;;;12.70;99.90;;;;;;4916897;29;20084;-77
2022/08/02 02:29:23;;;;;;;14.55;4.30;;;12.70;99.90;;;;;;4916374;29;20180;-79
2022/08/02 02:32:11;;;;;;;14.85;4.18;;;12.70;99.90;;;;;;4917953;29;20052;-77
2022/08/02 02:34:58;;;;;;;15.82;4.13;;;12.70;99.90;;;;;;4919989;28;20500;-78
2022/08/02 02:37:48;;;;;;;11.50;3.95;;;12.60;99.90;;;;;;4899684;29;20055;-78
2022/08/02 02:40:35;;;;;;;10.63;4.28;;;12.60;99.90;;;;;;4915856;29;20058;-78
2022/08/02 02:43:23;;;;;;;9.75;4.13;;;12.60;99.90;;;;;;4916247;29;20135;-77
2022/08/02 02:46:11;;;;;;;8.77;4.45;;;12.60;99.90;;;;;;4899082;29;20512;-77
2022/08/02 02:48:58;;;;;;;14.27;4.20;;;12.60;99.90;;;;;;4886777;29;20048;-76
2022/08/02 02:51:45;;;;;;;10.50;3.80;;;12.50;99.90;;;;;;4900484;29;20056;-77
2022/08/02 02:54:32;;;;;;;14.05;4.40;;;12.50;99.90;;;;;;4899781;29;20412;-75
2022/08/02 02:57:19;;;;;;;9.88;4.07;;;12.50;99.90;;;;;;4900561;29;20052;-76
2022/08/02 03:00:09;;;;;;;13.60;4.47;;;12.50;99.90;;;;;;4917352;29;20488;-77
2022/08/02 03:02:55;;;;;;;9.05;3.38;;;12.50;99.90;;;;;;4900083;29;20083;-79
2022/08/02 03:05:42;;;;;;;11.65;4.15;;;12.50;99.90;;;;;;4899923;29;20102;-76
2022/08/02 03:08:29;;;;;;;14.25;4.40;;;12.50;99.90;;;;;;4915859;29;20615;-75
2022/08/02 03:11:15;;;;;;;15.57;4.55;;;12.50;99.90;;;;;;4915318;29;20059;-76
2022/08/02 03:14:03;;;;;;;10.68;3.67;;;12.50;99.90;;;;;;4900480;29;20048;-78
2022/08/02 03:16:51;;;;;;;10.88;4.90;;;12.50;99.90;;;;;;4899087;29;20162;-75
2022/08/02 03:19:38;;;;;;;9.45;3.80;;;12.50;99.90;;;;;;4917123;29;20052;-77
2022/08/02 03:22:24;;;;;;;12.07;4.22;;;12.50;99.90;;;;;;4916141;29;20059;-78
2022/08/02 03:25:11;;;;;;;11.48;3.70;;;12.50;99.90;;;;;;4899699;29;20048;-76
2022/08/02 03:27:57;;;;;;;9.43;3.65;;;12.50;99.90;;;;;;4917906;29;20099;-78
2022/08/02 03:30:43;;;;;;;7.68;4.07;;;12.50;99.90;;;;;;4900478;29;20056;-77
2022/08/02 03:33:30;;;;;;;13.25;4.90;;;12.50;99.90;;;;;;4915918;29;20051;-77
2022/08/02 03:36:18;;;;;;;14.10;5.53;;;12.50;99.90;;;;;;4914554;29;20055;-76
2022/08/02 03:39:06;;;;;;;13.73;4.45;;;12.50;99.90;;;;;;4899333;29;20096;-78
2022/08/02 03:41:53;;;;;;;14.93;4.10;;;12.50;99.90;;;;;;4916098;29;20056;-77
2022/08/02 03:44:40;;;;;;;14.50;4.88;;;12.50;99.90;;;;;;4899832;29;20052;-78
2022/08/02 03:47:28;;;;;;;11.85;3.88;;;12.50;99.90;;;;;;4914861;29;20135;-76
2022/08/02 03:50:14;;;;;;;13.90;4.13;;;12.50;99.90;;;;;;4898875;29;20151;-76
2022/08/02 03:53:01;;;;;;;17.67;5.32;;;12.60;99.90;;;;;;4933088;28;20054;-77
2022/08/02 03:55:47;;;;;;;13.45;4.05;;;12.60;99.90;;;;;;4921514;29;20060;-77
2022/08/02 03:58:34;;;;;;;12.82;4.55;;;12.60;99.90;;;;;;4933958;29;20052;-78
2022/08/02 04:01:20;;;;;;;13.93;4.43;;;12.60;99.90;;;;;;4916872;29;20095;-77
2022/08/02 04:04:06;;;;;;;14.45;4.63;;;12.70;99.90;;;;;;4934867;28;20089;-77
2022/08/02 04:06:53;;;;;;;17.38;4.45;;;12.70;99.90;;;;;;4933767;29;20060;-76
2022/08/02 04:09:39;;;;;;;12.88;4.72;;;12.70;99.90;;;;;;4934058;29;20099;-77
2022/08/02 04:12:25;;;;;;;12.10;4.75;;;12.70;99.90;;;;;;4903649;29;20090;-76
2022/08/02 04:15:13;;;;;;;15.02;5.05;;;12.80;99.90;;;;;;4933417;29;20048;-77
2022/08/02 04:18:02;;;;;;;8.75;4.03;;;12.80;99.90;;;;;;4922176;28;20043;-77
2022/08/02 04:20:50;;;;;;;21.15;4.43;;;12.80;99.90;;;;;;4922324;29;20060;-78
2022/08/02 04:23:38;;;;;;;13.00;4.25;;;12.80;99.90;;;;;;4933210;29;20564;-77
2022/08/02 04:26:25;;;;;;;13.50;4.70;;;12.80;99.90;;;;;;4933494;28;20101;-79
2022/08/02 04:29:12;;;;;;;9.27;4.15;;;12.90;99.90;;;;;;4917506;29;20052;-79
2022/08/02 04:31:59;;;;;;;18.33;4.97;;;12.90;99.90;;;;;;4917408;29;20526;-79
2022/08/02 04:34:46;;;;;;;13.18;4.75;;;12.90;99.90;;;;;;4934660;28;20052;-78
2022/08/02 04:37:33;;;;;;;12.10;4.28;;;13.00;99.90;;;;;;4904382;29;20126;-78
2022/08/02 04:40:19;;;;;;;10.48;4.57;;;13.10;99.90;;;;;;4933634;29;20070;-78
2022/08/02 04:43:06;;;;;;;13.00;5.32;;;13.10;99.90;;;;;;4918267;28;20051;-78
2022/08/02 04:45:53;;;;;;;16.42;5.13;;;13.20;99.90;;;;;;4922270;29;20118;-76
2022/08/02 04:48:39;;;;;;;16.52;5.40;;;13.30;99.90;;;;;;4934556;28;20420;-75
2022/08/02 04:51:26;;;;;;;9.85;4.50;;;13.40;99.90;;;;;;4928107;28;20063;-78
2022/08/02 04:54:12;;;;;;;16.63;5.05;;;13.50;99.90;;;;;;4897003;29;20464;-76
2022/08/02 04:56:58;;;;;;;11.65;4.05;;;13.60;99.90;;;;;;4915043;29;20103;-78
2022/08/02 04:59:44;;;;;;;18.02;4.60;;;13.70;99.90;;;;;;4914294;29;20048;-77
2022/08/02 05:02:30;;;;;;;12.68;4.82;;;13.70;99.90;;;;;;4898154;29;20055;-78
2022/08/02 05:05:17;;;;;;;16.27;4.60;;;13.80;99.90;;;;;;4897180;29;20052;-76
2022/08/02 05:08:03;;;;;;;13.77;4.30;;;13.90;99.90;;;;;;4915125;29;20070;-75
2022/08/02 05:10:49;;;;;;;16.77;6.05;;;14.00;99.90;;;;;;4916408;29;20064;-77
2022/08/02 05:13:35;;;;;;;13.05;5.72;;;14.00;99.90;;;;;;4917501;29;20059;-77
2022/08/02 05:16:22;;;;;;;13.35;4.82;;;14.10;99.90;;;;;;4918073;29;20064;-76
2022/08/02 05:19:08;;;;;;;13.70;4.50;;;14.10;99.90;;;;;;4901471;29;20063;-77
2022/08/02 05:21:54;;;;;;;17.25;4.93;;;14.10;99.90;;;;;;4901642;29;20087;-79
2022/08/02 05:24:40;;;;;;;10.10;3.90;;;14.10;99.90;;;;;;4918395;29;20378;-81
2022/08/02 05:27:26;;;;;;;11.45;4.25;;;14.20;99.90;;;;;;4890542;29;20052;-78
2022/08/02 05:30:13;;;;;;;17.08;5.07;;;14.20;99.90;;;;;;4899334;29;20428;-76
2022/08/02 05:32:59;;;;;;;9.73;4.20;;;14.20;99.90;;;;;;4899438;29;20064;-76
2022/08/02 05:35:45;;;;;;;9.50;4.22;;;14.30;99.90;;;;;;4882151;29;20501;-79
2022/08/02 05:38:31;;;;;;;12.35;4.38;;;14.40;99.90;;;;;;4898788;29;20140;-77
2022/08/02 05:41:19;;;;;;;17.15;4.63;;;14.50;99.90;;;;;;4883472;29;20064;-76
2022/08/02 05:44:05;;;;;;;13.38;4.78;;;14.60;99.90;;;;;;4886674;29;20048;-77
2022/08/02 05:46:51;;;;;;;12.35;4.75;;;14.70;99.90;;;;;;4885521;29;20143;-78
2022/08/02 05:49:41;;;;;;;9.68;3.88;;;14.80;99.90;;;;;;4899575;29;20049;-76
2022/08/02 05:52:43;;;;;;;12.68;4.93;;;14.80;99.90;;;;;;4894334;29;20501;-76
2022/08/02 05:55:47;;;;;;;9.68;4.10;;;14.90;99.90;;;;;;4916661;29;20056;-77
2022/08/02 05:58:48;;;;;;;10.65;5.25;;;15.10;99.90;;;;;;4899710;29;20052;-76
2022/08/02 06:01:38;;;;;;;16.20;4.50;;;15.40;99.90;;;;;;4916405;29;20044;-78
2022/08/02 06:04:30;;;;;;;10.82;4.07;;;15.60;99.90;;;;;;4916970;29;20052;-76
2022/08/02 06:07:20;;;;;;;11.25;3.85;;;15.70;99.90;;;;;;4917809;29;20052;-77
2022/08/02 06:10:08;;;;;;;11.05;4.00;;;15.90;99.90;;;;;;4915504;29;20539;-76
2022/08/02 06:13:15;;;;;;;15.45;3.95;;;16.00;99.90;;;;;;4916532;29;20044;-76
2022/08/02 06:16:03;;;;;;;9.63;3.53;;;16.30;99.90;;;;;;4899857;29;20505;-77
2022/08/02 06:18:52;;;;;;;12.57;3.75;;;16.50;99.90;;;;;;4916743;29;20044;-78
2022/08/02 06:21:41;;;;;;;11.27;3.53;;;16.70;99.90;;;;;;4901932;29;20059;-74
2022/08/02 06:24:29;;;;;;;8.90;3.00;;;16.80;99.90;;;;;;4899141;29;20493;-80
2022/08/02 06:27:15;;;;;;;12.68;3.42;;;16.90;99.90;;;;;;4916887;29;20056;-75
2022/08/02 06:30:03;;;;;;;11.30;2.80;;;17.00;99.90;;;;;;4915720;29;20044;-76
2022/08/02 06:32:53;;;;;;;9.02;2.97;;;17.10;99.90;;;;;;4915329;29;20175;-77
2022/08/02 06:35:55;;;;;;;9.38;2.80;;;17.20;99.90;;;;;;4902626;29;20111;-76
2022/08/02 06:39:02;;;;;;;11.40;3.40;;;17.20;99.90;;;;;;4916072;29;20052;-77
2022/08/02 06:41:50;;;;;;;12.68;2.88;;;17.30;99.90;;;;;;4916033;29;20111;-76
2022/08/02 06:44:37;;;;;;;9.10;3.13;;;17.40;99.90;;;;;;4915719;29;20054;-78
2022/08/02 06:47:23;;;;;;;9.07;3.05;;;17.50;99.90;;;;;;4916035;29;20052;-78
2022/08/02 06:50:10;;;;;;;9.20;3.60;;;17.70;99.90;;;;;;4914726;29;20056;-78
2022/08/02 06:52:56;;;;;;;8.55;2.72;;;17.80;99.90;;;;;;4871492;29;1304693;-78
2022/08/02 06:55:44;;;;;;;11.77;2.92;;;18.00;99.90;;;;;;4899241;29;20062;-77
2022/08/02 06:58:30;;;;;;;13.02;2.28;;;18.20;99.90;;;;;;4899298;29;20048;-79
2022/08/02 07:01:18;;;;;;;17.52;3.92;;;18.30;99.90;;;;;;4893857;29;20707;-74
2022/08/02 07:04:04;;;;;;;10.65;2.67;;;18.40;99.90;;;;;;4881798;29;20064;-76
2022/08/02 07:06:50;;;;;;;7.22;2.70;;;18.50;99.90;;;;;;4898454;29;20044;-77
2022/08/02 07:09:36;;;;;;;8.68;2.10;;;18.60;99.90;;;;;;4898386;29;20052;-78
2022/08/02 07:12:23;;;;;;;10.20;2.28;;;18.60;99.90;;;;;;4901011;29;20493;-75
2022/08/02 07:15:11;;;;;;;12.40;3.55;;;18.80;99.90;;;;;;4899410;29;20060;-78
2022/08/02 07:17:57;;;;;;;10.15;2.53;;;19.10;99.90;;;;;;4897487;29;20135;-77
2022/08/02 07:20:43;;;;;;;6.00;1.95;;;19.20;99.90;;;;;;4896826;29;20080;-78
2022/08/02 07:23:30;;;;;;;9.40;1.90;;;19.40;99.90;;;;;;4897172;29;20506;-78
2022/08/02 07:26:16;;;;;;;7.95;1.75;;;19.40;99.90;;;;;;4898633;29;20068;-79
2022/08/02 07:29:02;;;;;;;7.25;2.17;;;19.60;99.90;;;;;;4883418;29;20064;-77
2022/08/02 07:31:49;;;;;;;8.95;1.77;;;19.70;99.90;;;;;;4898310;29;20053;-83
2022/08/02 07:34:35;;;;;;;5.68;2.03;;;19.90;99.90;;;;;;4896450;29;20060;-78
2022/08/02 07:37:24;;;;;;;11.27;2.28;;;20.00;99.90;;;;;;4898127;29;20068;-78
2022/08/02 07:40:11;;;;;;;7.28;1.58;;;20.30;99.90;;;;;;4896519;29;20041;-76
2022/08/02 07:42:58;;;;;;;5.18;1.50;;;20.40;99.90;;;;;;4878153;29;20144;-77
2022/08/02 07:45:44;;;;;;;7.80;1.73;;;20.60;99.90;;;;;;4865148;29;20064;-77
2022/08/02 07:48:30;;;;;;;6.00;1.60;;;20.90;99.90;;;;;;4879466;29;20082;-75
2022/08/02 07:51:16;;;;;;;6.47;1.55;;;21.10;99.90;;;;;;4878076;29;20120;-77
2022/08/02 07:54:06;;;;;;;5.20;1.50;;;21.30;99.90;;;;;;4877743;29;20096;-79
2022/08/02 07:56:53;;;;;;;9.20;2.03;;;21.40;99.70;;;;;;4900087;29;20056;-76
2022/08/02 07:59:39;;;;;;;4.93;1.17;;;21.50;99.10;;;;;;4903903;29;20059;-76
2022/08/02 08:02:31;;;;;;;3.80;1.10;;;21.80;98.70;;;;;;4908157;29;20049;-76
2022/08/02 08:05:17;;;;;;;4.45;1.02;;;21.80;98.10;;;;;;4916377;29;20063;-78
2022/08/02 08:08:04;;;;;;;4.80;1.38;;;21.90;98.00;;;;;;4905975;29;20714;-76
2022/08/02 08:10:51;;;;;;;3.80;1.10;;;22.00;97.40;;;;;;4908047;29;20493;-78
2022/08/02 08:13:37;;;;;;;2.70;0.93;;;22.20;96.40;;;;;;4909681;29;20048;-77
2022/08/02 08:16:25;;;;;;;5.20;1.13;;;22.30;96.50;;;;;;4903625;29;20056;-76
2022/08/02 08:19:14;;;;;;;3.65;1.08;;;22.40;96.30;;;;;;4885117;29;20048;-82
2022/08/02 08:22:01;;;;;;;2.65;0.90;;;22.60;96.30;;;;;;4888869;29;20062;-81
2022/08/02 08:24:48;;;;;;;4.53;0.80;;;22.70;96.10;;;;;;4914843;29;20044;-79
2022/08/02 08:27:34;;;;;;;5.38;0.93;;;22.80;95.60;;;;;;4914578;29;20048;-80
2022/08/02 08:30:22;;;;;;;5.60;1.17;;;22.90;94.90;;;;;;4913815;29;20052;-80
2022/08/02 08:33:08;;;;;;;3.92;0.80;;;22.90;94.40;;;;;;4906388;29;20048;-80
2022/08/02 08:35:55;;;;;;;3.92;1.13;;;23.00;94.60;;;;;;4893937;29;20060;-81
2022/08/02 08:38:41;;;;;;;4.28;0.80;;;23.10;94.30;;;;;;4896233;29;20044;-80
2022/08/02 08:41:27;;;;;;;2.63;0.80;;;23.10;94.10;;;;;;4896206;29;20056;-80
2022/08/02 08:44:14;;;;;;;2.25;0.90;;;23.30;94.10;;;;;;4897216;29;20394;-79
2022/08/02 08:47:01;;;;;;;5.43;1.30;;;23.20;94.20;;;;;;4900961;29;20114;-81
2022/08/02 08:49:51;;;;;;;2.70;0.65;;;23.00;93.20;;;;;;4898608;29;20052;-79
2022/08/02 08:52:41;;;;;;;3.40;0.77;;;23.20;93.40;;;;;;4896341;29;20065;-77
2022/08/02 08:55:29;;;;;;;4.45;1.20;;;23.40;93.20;;;;;;4899822;29;20056;-79
2022/08/02 08:58:15;;;;;;;4.20;0.98;;;23.50;93.10;;;;;;4906488;29;20060;-78
2022/08/02 09:01:01;;;;;;;4.65;1.05;;;23.60;92.60;;;;;;4894739;29;20048;-77
2022/08/02 09:03:47;;;;;;;4.65;1.05;;;23.60;92.50;;;;;;4898722;29;20480;-77
2022/08/02 09:06:33;;;;;;;6.53;1.58;;;23.80;92.90;;;;;;4884990;29;20091;-79
2022/08/02 09:09:20;;;;;;;2.70;0.77;;;23.90;92.30;;;;;;4915277;29;20096;-81
2022/08/02 09:12:14;;;;;;;4.43;1.13;;;24.00;92.20;;;;;;4914134;29;20048;-79
2022/08/02 09:15:04;;;;;;;4.90;1.60;;;23.90;91.70;;;;;;4914777;29;20048;-77
2022/08/02 09:17:51;;;;;;;5.03;0.88;;;24.10;91.50;;;;;;4914718;29;20135;-78
2022/08/02 09:20:57;;;;;;;4.22;1.00;;;24.00;91.60;;;;;;4913185;29;20088;-79
2022/08/02 09:23:49;;;;;;;3.70;0.93;;;24.20;92.10;;;;;;4897614;29;20059;-79
2022/08/02 09:26:35;;;;;;;1.92;0.75;;;24.50;92.60;;;;;;4900848;29;20059;-79
2022/08/02 09:29:23;;;;;;;4.65;1.30;;;24.80;92.60;;;;;;4914133;29;20048;-79
2022/08/02 09:32:10;;;;;;;4.82;1.25;;;24.70;92.30;;;;;;4900878;29;20419;-79
2022/08/02 09:34:56;;;;;;;3.50;0.90;;;24.80;92.20;;;;;;4915444;29;20055;-80
2022/08/02 09:37:42;;;;;;;3.75;1.10;;;24.60;91.60;;;;;;4900801;29;20055;-79
2022/08/02 09:40:36;;;;;;;5.70;1.20;;;24.60;91.90;;;;;;4909201;29;20051;-83
2022/08/02 09:43:39;;;;;;;4.32;1.50;;;24.50;91.70;;;;;;4891064;29;20566;-78
2022/08/02 09:46:31;;;;;;;2.97;0.85;;;24.60;91.90;;;;;;4908229;29;20053;-79
2022/08/02 09:49:18;;;;;;;6.45;1.00;;;24.80;92.40;;;;;;4904453;29;20059;-78
2022/08/02 09:52:05;;;;;;;5.07;1.20;;;24.60;92.40;;;;;;4881972;29;20048;-82
2022/08/02 09:54:51;;;;;;;4.40;1.50;;;24.70;92.80;;;;;;4879169;29;20559;-79
2022/08/02 09:57:38;;;;;;;5.35;1.63;;;24.80;92.40;;;;;;4899430;29;20048;-79
2022/08/02 10:00:24;;;;;;;3.70;1.13;;;24.90;92.60;;;;;;4899514;29;20060;-80
2022/08/02 10:03:11;;;;;;;5.55;1.42;;;25.20;92.60;;;;;;4899285;29;20055;-79
2022/08/02 10:05:58;;;;;;;8.23;1.55;;;25.70;92.60;;;;;;4899499;29;20056;-79
2022/08/02 10:08:45;;;;;;;4.93;1.48;;;25.80;92.10;;;;;;4884987;29;20138;-82
2022/08/02 10:11:33;;;;;;;5.55;1.27;;;25.90;92.40;;;;;;4882261;29;20060;-78
2022/08/02 10:14:20;;;;;;;7.65;1.70;;;25.90;92.40;;;;;;4882764;29;20068;-78
2022/08/02 10:17:06;;;;;;;6.88;1.90;;;26.40;92.30;;;;;;4899264;29;20117;-81
2022/08/02 10:19:53;;;;;;;5.13;1.70;;;26.30;92.20;;;;;;4899817;29;20056;-79
2022/08/02 10:22:41;;;;;;;4.13;1.52;;;26.20;92.20;;;;;;4898760;29;20100;-78
2022/08/02 10:25:29;;;;;;;5.13;2.38;;;26.40;92.60;;;;;;4899412;29;20481;-78
2022/08/02 10:28:17;;;;;;;6.45;2.03;;;26.40;92.60;;;;;;4885741;29;20057;-83
2022/08/02 10:31:06;;;;;;;4.32;2.00;;;26.30;92.60;;;;;;4901041;29;20051;-82
2022/08/02 10:33:54;;;;;;;7.25;2.47;;;25.90;93.00;;;;;;4900750;29;20505;-80
2022/08/02 10:36:42;;;;;;;7.80;2.47;;;26.00;93.70;;;;;;4899977;29;20048;-82
2022/08/02 10:39:44;;;;;;;8.93;2.40;;;25.90;93.50;;;;;;4898190;29;20052;-82
2022/08/02 10:42:48;;;;;;;6.72;2.50;;;25.60;94.40;;;;;;4885273;29;20091;-82
2022/08/02 10:45:34;;;;;;;7.47;3.10;;;25.50;94.30;;;;;;4884704;29;20445;-82
2022/08/02 10:48:21;;;;;;;8.88;2.75;;;25.20;94.50;;;;;;4900052;29;20068;-82
2022/08/02 10:51:07;;;;;;;7.57;3.35;;;25.30;94.80;;;;;;4898433;29;20124;-83
2022/08/02 10:54:09;;;;;;;10.18;3.08;;;25.10;94.80;;;;;;4899815;29;20062;-81
2022/08/02 10:56:57;;;;;;;6.03;2.65;;;25.40;95.30;;;;;;4882668;29;20135;-82
2022/08/02 10:59:44;;;;;;;5.50;2.63;;;25.60;95.60;;;;;;4882246;29;20090;-82
2022/08/02 11:02:41;;;;;;;7.85;2.38;;;25.60;95.40;;;;;;4885200;29;20053;-81
2022/08/02 11:05:33;;;;;;;7.53;2.67;;;25.60;95.00;;;;;;4896932;29;20053;-82
2022/08/02 11:08:21;;;;;;;5.78;2.70;;;25.50;95.00;;;;;;4885216;29;20509;-80
2022/08/02 11:11:18;;;;;;;8.07;2.60;;;25.40;94.70;;;;;;4882890;29;20056;-81
2022/08/02 11:14:07;;;;;;;5.28;2.38;;;25.30;95.00;;;;;;4903009;29;20052;-83
2022/08/02 11:16:56;;;;;;;4.43;2.28;;;25.30;95.40;;;;;;4904765;29;20112;-79
2022/08/02 11:20:07;;;;;;;5.03;2.55;;;25.10;96.00;;;;;;4898989;29;20057;-79
2022/08/02 11:23:14;;;;;;;6.10;2.38;;;25.20;96.40;;;;;;4897284;29;20401;-82
2022/08/02 11:26:41;;;;;;;5.30;2.70;;;25.00;96.70;;;;;;4879679;29;20047;-82
2022/08/02 11:29:35;;;;;;;8.80;2.88;;;25.10;97.70;;;;;;4896136;29;20462;-82
2022/08/02 11:32:23;;;;;;;7.85;3.17;;;25.10;97.40;;;;;;4899487;29;20044;-82
2022/08/02 11:35:09;;;;;;;5.85;3.50;;;25.00;97.70;;;;;;4888767;29;20063;-80
2022/08/02 11:37:57;;;;;;;5.07;2.75;;;25.10;97.90;;;;;;4889239;29;20052;-81
2022/08/02 11:40:45;;;;;;;8.45;4.55;;;25.10;98.40;;;;;;4897054;29;20044;-79
2022/08/02 11:43:31;;;;;;;8.63;6.18;;;25.00;99.00;;;;;;4905204;29;20143;-81
2022/08/02 11:46:17;;;;;;;10.80;6.03;;;24.90;99.30;;;;;;4887325;29;20472;-81
2022/08/02 11:49:17;;;;;;;14.13;7.32;;;24.60;99.70;;;;;;4896801;29;20053;-80
2022/08/02 11:52:06;;;;;;;9.90;7.07;;;24.50;99.90;;;;;;4897621;29;20084;-80
2022/08/02 11:54:52;;;;;;;11.80;7.53;;;24.20;99.90;;;;;;4897027;29;20079;-80
2022/08/02 11:57:40;;;;;;;15.45;8.55;;;24.30;99.90;;;;;;4896687;29;20167;-79
2022/08/02 12:00:26;;;;;;;15.50;7.63;;;24.30;99.90;;;;;;4879431;29;20420;-80
2022/08/02 12:03:12;;;;;;;11.32;6.75;;;24.30;99.90;;;;;;4901746;29;20056;-80
2022/08/02 12:05:58;;;;;;;14.80;8.40;;;24.50;99.90;;;;;;4898100;29;20076;-79
2022/08/02 12:08:45;;;;;;;13.82;8.48;;;24.60;99.90;;;;;;4896784;29;20052;-81
2022/08/02 12:11:32;;;;;;;12.75;7.38;;;24.50;99.90;;;;;;4898327;29;20067;-81
2022/08/02 12:14:19;;;;;;;11.95;7.63;;;24.50;99.90;;;;;;4896309;29;20091;-81
2022/08/02 12:20:11;;;;;;;13.80;8.02;;;24.50;99.90;;;;;;4897579;29;20133;-80
2022/08/02 12:23:01;;;;;;;14.98;9.30;;;24.40;99.90;;;;;;4896751;29;20539;-80
2022/08/02 12:26:08;;;;;;;13.75;8.85;;;24.30;99.90;;;;;;4896409;29;20052;-82
2022/08/02 12:28:57;;;;;;;15.82;9.63;;;24.10;99.90;;;;;;4896601;29;20135;-80
2022/08/02 12:31:48;;;;;;;13.82;9.18;;;24.00;99.90;;;;;;4898395;29;20056;-80
2022/08/02 12:34:34;;;;;;;12.80;8.15;;;23.90;99.90;;;;;;4901733;29;20092;-83
2022/08/02 12:37:25;;;;;;;14.82;9.07;;;23.80;99.90;;;;;;4900255;29;20052;-82
2022/08/02 12:40:21;;;;;;;15.48;9.68;;;23.70;99.90;;;;;;4896149;29;20147;-82
2022/08/02 12:43:16;;;;;;;16.27;10.13;;;23.60;99.90;;;;;;4896206;29;20084;-82
2022/08/02 12:46:02;;;;;;;;;;;23.60;99.90;;;;;;4896876;29;20053;-81
2022/08/02 12:48:49;;;;;;;19.73;8.18;;;23.50;99.90;;;;;;4897040;29;19924;-80
2022/08/02 12:51:39;;;;;;;17.08;10.10;;;23.50;99.90;;;;;;4879873;29;20459;-82
2022/08/02 12:54:38;;;;;;;16.15;11.07;;;23.50;99.90;;;;;;4883265;29;20077;-83
2022/08/02 12:57:24;;;;;;;15.65;9.40;;;23.50;99.90;;;;;;4897707;29;20052;-81
2022/08/02 13:00:22;;;;;;;16.60;9.98;;;23.50;99.90;;;;;;4899313;29;20509;-82
2022/08/02 13:03:09;;;;;;;13.95;9.23;;;23.40;99.90;;;;;;4902907;29;20057;-82
2022/08/02 13:05:55;;;;;;;18.85;10.43;;;23.40;99.90;;;;;;4900421;29;20049;-82
2022/08/02 13:08:41;;;;;;;18.35;10.52;;;23.40;99.90;;;;;;4899268;29;20052;-81
2022/08/02 13:11:27;;;;;;;17.90;9.40;;;23.50;99.90;;;;;;4898558;29;20053;-80
2022/08/02 13:14:14;;;;;;;18.88;9.90;;;23.60;99.90;;;;;;4896711;29;20184;-82
2022/08/02 13:17:01;;;;;;;16.30;10.63;;;23.50;99.90;;;;;;4897248;29;20132;-82
2022/08/02 13:19:47;;;;;;;27.95;18.70;;;23.70;99.90;;;;;;4897276;29;20102;-79
2022/08/02 13:22:34;;;;;;;14.00;10.32;;;23.80;99.90;;;;;;4896939;29;20108;-78
2022/08/02 13:25:21;;;;;;;14.98;10.10;;;23.90;99.90;;;;;;4880227;29;20490;-76
2022/08/02 13:28:08;;;;;;;16.95;10.30;;;23.80;99.90;;;;;;4896026;29;20063;-80
2022/08/02 13:30:54;;;;;;;18.83;10.27;;;23.70;99.90;;;;;;4895588;29;20196;-81
2022/08/02 13:33:40;;;;;;;19.27;10.45;;;23.70;99.90;;;;;;4897689;29;20081;-80
2022/08/02 13:36:26;;;;;;;19.95;11.45;;;23.80;99.90;;;;;;4897940;29;20049;-78
2022/08/02 13:39:12;;;;;;;19.52;11.57;;;23.80;99.90;;;;;;4883672;29;20075;-81
2022/08/02 13:41:59;;;;;;;17.80;11.23;;;23.80;99.90;;;;;;4900195;29;20056;-83
2022/08/02 13:44:46;;;;;;;14.55;9.80;;;23.60;99.90;;;;;;4888651;29;20060;-84
2022/08/02 13:47:32;;;;;;;19.80;10.70;;;23.60;99.90;;;;;;4901627;29;20798;-86
2022/08/02 13:50:18;;;;;;;14.52;10.63;;;23.40;99.90;;;;;;4902003;29;20537;-84
2022/08/02 13:53:05;;;;;;;15.40;10.55;;;23.40;99.90;;;;;;4884450;29;20101;-84
2022/08/02 13:55:52;;;;;;;18.73;9.93;;;23.40;99.90;;;;;;4864588;29;20056;-83
2022/08/02 13:58:38;;;;;;;15.10;9.45;;;23.50;99.90;;;;;;4883302;29;20612;-84
2022/08/02 14:01:27;;;;;;;19.15;9.50;;;23.60;99.90;;;;;;4884096;29;20128;-85
2022/08/02 14:04:13;;;;;;;17.05;9.60;;;23.70;99.90;;;;;;4881770;29;20053;-83
2022/08/02 14:06:59;;;;;;;13.52;8.80;;;23.70;99.90;;;;;;4881210;29;20481;-83
2022/08/02 14:09:46;;;;;;;13.23;9.75;;;23.90;99.90;;;;;;4883916;29;20065;-83
2022/08/02 14:12:32;;;;;;;15.38;9.23;;;24.10;99.90;;;;;;4882682;29;20053;-83
2022/08/02 14:15:19;;;;;;;19.60;10.50;;;24.20;99.90;;;;;;4881159;29;20476;-83
2022/08/02 14:18:05;;;;;;;16.27;9.23;;;24.40;99.90;;;;;;4885261;29;20076;-82
2022/08/02 14:20:51;;;;;;;15.45;8.85;;;24.50;99.90;;;;;;4867514;29;20124;-83
2022/08/02 14:23:38;;;;;;;13.95;8.93;;;24.70;99.90;;;;;;4884151;29;20105;-82
2022/08/02 14:26:24;;;;;;;12.60;9.32;;;24.90;99.90;;;;;;4881744;29;20060;-83
2022/08/02 14:29:10;;;;;;;14.75;8.63;;;25.20;99.90;;;;;;4866062;29;20093;-82
2022/08/02 14:31:56;;;;;;;12.00;8.00;;;26.30;99.90;;;;;;4865889;29;20056;-82
2022/08/02 14:34:43;;;;;;;13.45;7.65;;;26.70;98.90;;;;;;4880885;29;20397;-83